SBOSBO JMK / LGMK
Speedbird OnlineSpeedbird Online JMK / LGMK

Mikonos Airport
14:24 18°C

Location Mykonos, Greece
Latitude: 37.43510055541992
Longitude: 25.348100662231445
Web Wikipedia
Altitude 123 Meter / 405 Feet
Distance 2,519 KM / 1,565 Miles
from London.
Time Zone UTC +2 hours (Europe/Athens)
Codes IATA: JMK
ICAO: LGMK
Currency £1 equals EUR 1.15
Runways
RunwayLength (m)Surface
161902Asphalt
341902Asphalt
Radio
TypeDescriptionFrequency
A/GRDO563.7
APPAPP118.75
TWRTWR118.75
Live ATC
METAR LGMK 291150Z 19020G30KT 9999 FEW018 SCT030 18/12 Q1009
TAF TAF LGMK 291100Z 2912/2921 20023G35KT 9999 FEW012 SCT025 PROB30 TEMPO 2912/2918 5000 RA FEW012 FEW018TCU BKN025
Weather As Of 29 Nov 2023 14:24
Description Scattered clouds
Wind 37 km/h from South (190°)
Cloud Cover 40%
Precipitation Rain: none, Snow: none
Sunrise 07:12
Sunset 17:01
Lounges CIP Lounge by Goldair, Main Terminal Building
Rotations During the last 90 days there were
54 flights from LHR
9 flights from LGW
7 flights from LCY
55 flights to LHR
9 flights to LGW
7 flights to LCY



Support Speedbird Online

© 2017-2023 Speedbird Online